JP-0073 weather

Tokushima Prefectural Central Hospital Helipad
Tokushima, Tokushima Prefecture, Japan

Public forecast

Using degrees Celsius for public forecast. Weather courtesy of forecast.io.

Closest aviation weather report (METAR) to Tokushima Prefectural Central Hospital Helipad

Closest report is Tokushima Airport/JMSDF Air Base, 5.5 nm (10.2 km) NE. Retrieved 2019/10/14 14:00 UTC (9 minutes ago):

RJOS 141400Z 04017KT 9999 FEW012 SCT020 BKN050 21/15 Q1020

Closest aviation forecast (TAF) to Tokushima Prefectural Central Hospital Helipad

Closest forecast is Takamatsu Airport, 26.4 nm (48.9 km) WNW. Retrieved 2019/10/14 12:30 UTC (2 hours ago):

TAF TAF RJOT 141106Z 1412/1518 20005KT 9999 FEW020 BKN050 BECMG 1415/1417 15005KT